Dinard, France

00:04 CEST le 30 septembre 2016 (GMT +0200)
Le Frémur | | Change Station

Alt. 0 ft 48.59 °N, 2.11 °W | Updated 5 minutes ago

Partly Cloudy
Partiellement nuageux
57.0 ° F
Paraît 57.0 ° F
N
0.6
Vent Variable Vent de Ouest
Gusts 1.2 mph

Aujourd'hui
Haut(e) -- | Bas -- ° F
--% Risque de précip.
Hier
Haut(e) -- | Bas -- ° F
Precip. -- pouce
Pression 30.06 pouce
Visibilité 6.2 Miles terrestres
Nuages Peu 2100 ft
Point de rosée 53 ° F
Humidité 85%
Précipitations pouce
Profondeur de la couche neigeuse Non disponible.
8:06 AM 7:48 PM
Lune descendante, 1% visible
METAR LFRD 292130Z AUTO 24005KT 9999 FEW021/// 12/11 Q1018 TEMPO 0500 BCFG
Pression 30.06 pouce
Visibilité 6.2 Miles terrestres
Nuages Peu 2100 ft
Point de rosée 53 ° F
Humidité 85%
Précipitations pouce
Profondeur de la couche neigeuse Non disponible.
8:06 AM 7:48 PM
Lune descendante, 1% visible
METAR LFRD 292130Z AUTO 24005KT 9999 FEW021/// 12/11 Q1018 TEMPO 0500 BCFG

10-Day Weather Forecast

×

Almanac

Astronomie

Sep. 30, 2016 Lever Coucher
Temps réel
Crépuscule civil
Crépuscule nautique
Crépuscule astronomique
Lune
Durée de lumière visible
Longueur du jour
Tomorrow will be .
, % of the Moon is Illuminated

Extrêmes aujourd'hui

Country Highs Country Lows

Community

WunderPhotos

Upload Photos

1,942,584 Photos téléchargées !

WunderBlog® & News

Nearby

Qualité de l'air

  Qualité de l'air Indice de la qualité de l'air Polluant
Not available.

Épaisseur de neige

Station Depth Altitude

Activité sismique

Ville Distance Mag. Time & Date
Minimum magnitude displayed is 2.5.

Températures des eaux côtières

Lieu Température

Stations

Stations météo à proximité

Emplacement de la station Température Refroidissement éolien Point de rosée Humidité Vent Precip. Alt. Mise à jour Type